createdAt,value
2019-04-21T00:00:19.252Z,9.21
2019-04-21T00:01:16.727Z,9.20
2019-04-21T00:02:25.487Z,9.18
2019-04-21T00:03:25.642Z,9.20
2019-04-21T00:04:29.967Z,9.23
2019-04-21T00:05:32.079Z,9.20
2019-04-21T00:06:35.310Z,9.21
2019-04-21T00:07:36.174Z,9.20
2019-04-21T00:08:37.698Z,9.16
2019-04-21T00:09:41.820Z,9.21
2019-04-21T00:10:40.050Z,9.20
2019-04-21T00:12:35.880Z,9.16
2019-04-21T00:13:32.935Z,9.13
2019-04-21T00:14:31.577Z,9.09
2019-04-21T00:15:27.689Z,9.12
2019-04-21T00:16:29.116Z,9.15
2019-04-21T00:17:20.861Z,9.16
2019-04-21T00:18:17.436Z,9.20
2019-04-21T00:19:21.153Z,9.20
2019-04-21T00:20:26.624Z,9.18
2019-04-21T00:21:28.217Z,9.13
2019-04-21T00:22:31.430Z,9.16
2019-04-21T00:23:32.823Z,9.10
2019-04-21T00:24:32.351Z,9.05
2019-04-21T00:25:31.065Z,9.04
2019-04-21T00:26:36.379Z,9.02
2019-04-21T00:27:36.892Z,9.01
2019-04-21T00:28:47.243Z,9.01
2019-04-21T00:29:38.411Z,9.06
2019-04-21T00:30:43.062Z,9.12
2019-04-21T00:31:35.318Z,9.16
2019-04-21T00:32:29.214Z,9.18
2019-04-21T00:33:24.396Z,9.21
2019-04-21T00:34:17.652Z,9.25
2019-04-21T00:35:22.495Z,9.28
2019-04-21T00:36:24.212Z,9.31
2019-04-21T00:37:26.846Z,9.30
2019-04-21T00:38:40.468Z,9.28
2019-04-21T00:39:44.034Z,9.24
2019-04-21T00:40:41.436Z,9.20
2019-04-21T00:41:36.692Z,9.21
2019-04-21T00:42:34.315Z,9.23
2019-04-21T00:43:33.578Z,9.21
2019-04-21T00:44:26.959Z,9.21
2019-04-21T00:45:31.313Z,9.25
2019-04-21T00:46:32.404Z,9.24
2019-04-21T00:47:53.319Z,9.27
2019-04-21T00:48:42.402Z,9.24
2019-04-21T00:49:31.110Z,9.23
2019-04-21T00:50:40.609Z,9.16
2019-04-21T00:51:46.638Z,9.15
2019-04-21T00:53:43.543Z,9.13
2019-04-21T00:54:46.379Z,9.15
2019-04-21T00:56:41.365Z,9.23
2019-04-21T00:57:44.962Z,9.24
2019-04-21T00:58:39.617Z,9.24
2019-04-21T00:59:40.394Z,9.25
2019-04-21T01:00:38.483Z,9.25
2019-04-21T01:01:42.486Z,9.25
2019-04-21T01:02:48.513Z,9.25
2019-04-21T01:03:37.249Z,9.27
2019-04-21T01:04:42.926Z,9.27
2019-04-21T01:05:42.952Z,9.25
2019-04-21T01:06:42.735Z,9.21
2019-04-21T01:07:37.095Z,9.16
2019-04-21T01:08:36.014Z,9.10
2019-04-21T01:09:31.685Z,9.05
2019-04-21T01:10:28.765Z,9.01
2019-04-21T01:11:42.200Z,8.97
2019-04-21T01:12:37.681Z,8.93
2019-04-21T01:13:42.579Z,8.91
2019-04-21T01:14:41.912Z,8.90
2019-04-21T01:15:43.647Z,8.86
2019-04-21T01:16:40.869Z,8.83
2019-04-21T01:17:40.849Z,8.79
2019-04-21T01:18:38.150Z,8.78
2019-04-21T01:19:33.685Z,8.73
2019-04-21T01:20:17.944Z,8.72
2019-04-21T01:21:15.586Z,8.66
2019-04-21T01:22:15.564Z,8.63
2019-04-21T01:23:16.631Z,8.60
2019-04-21T01:24:21.741Z,8.55
2019-04-21T01:25:27.193Z,8.53
2019-04-21T01:26:30.749Z,8.51
2019-04-21T01:27:39.792Z,8.48
2019-04-21T01:28:36.299Z,8.44
2019-04-21T01:29:44.152Z,8.37
2019-04-21T01:30:34.332Z,8.37
2019-04-21T01:31:34.969Z,8.32
2019-04-21T01:32:34.444Z,8.30
2019-04-21T01:33:38.030Z,8.25
2019-04-21T01:34:38.945Z,8.21
2019-04-21T01:35:39.719Z,8.18
2019-04-21T01:36:34.730Z,8.17
2019-04-21T01:37:44.043Z,8.14
2019-04-21T01:38:40.329Z,8.11
2019-04-21T01:39:43.044Z,8.07
2019-04-21T01:40:43.291Z,8.10
2019-04-21T01:41:42.857Z,8.08
2019-04-21T01:42:36.936Z,8.08
2019-04-21T01:43:36.559Z,8.07
2019-04-21T01:44:54.884Z,8.08
2019-04-21T01:45:35.530Z,8.03
2019-04-21T01:46:36.370Z,8.03
2019-04-21T01:47:31.361Z,8.04
2019-04-21T01:48:37.741Z,8.00
2019-04-21T01:49:26.387Z,7.96
2019-04-21T01:50:36.441Z,7.97
2019-04-21T01:51:37.112Z,7.97
2019-04-21T01:52:47.189Z,7.94
2019-04-21T01:53:40.761Z,7.92
2019-04-21T01:54:43.200Z,7.87
2019-04-21T01:55:36.762Z,7.81
2019-04-21T01:56:35.734Z,7.79
2019-04-21T01:57:35.743Z,7.79
2019-04-21T01:58:29.024Z,7.81
2019-04-21T01:59:32.760Z,7.79
2019-04-21T02:00:32.665Z,7.79
2019-04-21T02:01:36.714Z,7.81
2019-04-21T02:02:35.998Z,7.79
2019-04-21T02:04:41.669Z,7.87
2019-04-21T02:05:37.689Z,7.89
2019-04-21T02:06:34.833Z,7.90
2019-04-21T02:07:40.569Z,7.90
2019-04-21T02:08:34.124Z,7.90
2019-04-21T02:09:39.350Z,7.94
2019-04-21T02:10:40.048Z,7.99
2019-04-21T02:11:40.744Z,8.02
2019-04-21T02:12:39.062Z,8.04
2019-04-21T02:13:44.324Z,8.07
2019-04-21T02:14:41.643Z,8.03
2019-04-21T02:15:59.298Z,8.02
2019-04-21T02:16:37.622Z,8.00
2019-04-21T02:17:34.169Z,8.00
2019-04-21T02:18:33.712Z,7.96
2019-04-21T02:19:32.594Z,7.92
2019-04-21T02:20:26.918Z,7.87
2019-04-21T02:21:31.857Z,7.81
2019-04-21T02:22:46.729Z,7.75
2019-04-21T02:23:47.476Z,7.72
2019-04-21T02:24:45.037Z,7.71
2019-04-21T02:25:38.394Z,7.72
2019-04-21T02:26:51.030Z,7.67
2019-04-21T02:27:36.470Z,7.63
2019-04-21T02:28:45.109Z,7.58
2019-04-21T02:29:43.830Z,7.52
2019-04-21T02:31:01.125Z,7.49
2019-04-21T02:31:45.160Z,7.45
2019-04-21T02:32:48.054Z,7.38
2019-04-21T02:34:00.694Z,7.35
2019-04-21T02:36:15.467Z,7.32
2019-04-21T02:36:52.925Z,7.27
2019-04-21T02:37:58.753Z,7.26
2019-04-21T02:39:06.241Z,7.27
2019-04-21T02:39:52.946Z,7.24
2019-04-21T02:40:47.802Z,7.27
2019-04-21T02:41:50.524Z,7.27
2019-04-21T02:44:59.854Z,7.37
2019-04-21T02:45:51.729Z,7.42
2019-04-21T02:48:04.452Z,7.44
2019-04-21T02:49:56.450Z,7.38
2019-04-21T02:50:47.223Z,7.31
2019-04-21T02:51:55.934Z,7.27
2019-04-21T02:54:26.078Z,7.31
2019-04-21T02:55:47.719Z,7.24
2019-04-21T02:57:51.394Z,7.17
2019-04-21T02:59:49.394Z,7.08
2019-04-21T03:00:43.103Z,7.04
2019-04-21T03:01:48.494Z,7.02
2019-04-21T03:02:47.278Z,6.97
2019-04-21T03:03:43.647Z,6.91
2019-04-21T03:05:02.282Z,6.89
2019-04-21T03:05:51.194Z,6.86
2019-04-21T03:07:55.478Z,6.71
2019-04-21T03:08:50.647Z,6.69
2019-04-21T03:11:52.320Z,6.54
2019-04-21T03:13:47.278Z,6.51
2019-04-21T03:15:47.321Z,6.54
2019-04-21T03:17:10.113Z,6.59
2019-04-21T03:18:48.222Z,6.59
2019-04-21T03:20:43.964Z,6.58
2019-04-21T03:21:52.557Z,6.59
2019-04-21T03:22:46.216Z,6.58
2019-04-21T03:23:54.105Z,6.61
2019-04-21T03:25:23.044Z,6.63
2019-04-21T03:27:01.064Z,6.61
2019-04-21T03:28:45.881Z,6.58
2019-04-21T03:31:06.718Z,6.54
2019-04-21T03:35:34.406Z,6.46
2019-04-21T03:37:47.737Z,6.33
2019-04-21T03:38:47.265Z,6.32
2019-04-21T03:40:44.284Z,6.28
2019-04-21T03:41:48.058Z,6.28
2019-04-21T03:43:43.795Z,6.28
2019-04-21T03:46:47.296Z,6.14
2019-04-21T03:47:43.479Z,6.13
2019-04-21T03:48:51.324Z,6.09
2019-04-21T03:49:54.567Z,6.04
2019-04-21T03:50:40.651Z,6.03
2019-04-21T03:51:48.335Z,6.01
2019-04-21T03:53:00.783Z,6.00
2019-04-21T03:54:54.038Z,5.96
2019-04-21T03:58:05.580Z,5.98
2019-04-21T03:58:56.313Z,6.01
2019-04-21T03:59:48.912Z,6.04
2019-04-21T04:01:48.855Z,6.10
2019-04-21T04:04:44.238Z,6.14
2019-04-21T04:06:02.038Z,6.14
2019-04-21T04:10:50.459Z,6.25
2019-04-21T04:12:42.449Z,6.25
2019-04-21T04:14:03.759Z,6.22
2019-04-21T04:14:47.997Z,6.21
2019-04-21T04:15:45.678Z,6.18
2019-04-21T04:17:08.826Z,6.22
2019-04-21T04:17:41.022Z,6.26
2019-04-21T04:18:52.803Z,6.29
2019-04-21T04:21:10.173Z,6.28
2019-04-21T04:21:49.329Z,6.28
2019-04-21T04:22:51.732Z,6.22
2019-04-21T04:23:51.339Z,6.21
2019-04-21T04:24:50.173Z,6.21
2019-04-21T04:25:53.148Z,6.22
2019-04-21T04:26:49.051Z,6.28
2019-04-21T04:27:59.776Z,6.28
2019-04-21T04:29:07.457Z,6.29
2019-04-21T04:29:41.964Z,6.32
2019-04-21T04:30:45.043Z,6.36
2019-04-21T04:32:42.455Z,6.32
2019-04-21T04:33:57.769Z,6.33
2019-04-21T04:34:47.739Z,6.30
2019-04-21T04:36:55.475Z,6.26
2019-04-21T04:37:44.469Z,6.25
2019-04-21T04:38:54.456Z,6.22
2019-04-21T04:40:51.734Z,6.21
2019-04-21T04:41:53.008Z,6.25
2019-04-21T04:42:45.817Z,6.26
2019-04-21T04:43:52.587Z,6.28
2019-04-21T04:44:59.662Z,6.29
2019-04-21T04:46:58.797Z,6.38
2019-04-21T04:48:01.952Z,6.41
2019-04-21T04:48:45.873Z,6.46
2019-04-21T04:51:58.902Z,6.47
2019-04-21T04:53:45.566Z,6.53
2019-04-21T04:56:48.238Z,6.50
2019-04-21T04:57:57.719Z,6.48
2019-04-21T05:01:06.215Z,6.40
2019-04-21T05:01:57.666Z,6.43
2019-04-21T05:02:42.027Z,6.47
2019-04-21T05:05:09.070Z,6.54
2019-04-21T05:05:51.051Z,6.63
2019-04-21T05:06:57.577Z,6.72
2019-04-21T05:07:50.085Z,6.79
2019-04-21T05:13:51.459Z,7.01
2019-04-21T05:15:44.464Z,6.97
2019-04-21T05:16:47.005Z,6.97
2019-04-21T05:17:49.187Z,6.95
2019-04-21T05:18:52.926Z,6.95
2019-04-21T05:19:58.361Z,6.97
2019-04-21T05:20:48.189Z,6.97
2019-04-21T05:21:42.094Z,6.98
2019-04-21T05:22:35.241Z,6.97
2019-04-21T05:23:32.584Z,6.97
2019-04-21T05:24:33.389Z,7.01
2019-04-21T05:25:31.114Z,7.07
2019-04-21T05:26:27.053Z,7.09
2019-04-21T05:27:29.438Z,7.15
2019-04-21T05:28:29.920Z,7.26
2019-04-21T05:29:29.581Z,7.37
2019-04-21T05:31:39.933Z,7.55
2019-04-21T05:32:40.271Z,7.59
2019-04-21T05:33:38.487Z,7.63
2019-04-21T05:34:39.056Z,7.67
2019-04-21T05:35:37.672Z,7.71
2019-04-21T05:36:36.556Z,7.71
2019-04-21T05:37:36.705Z,7.77
2019-04-21T05:38:33.340Z,7.81
2019-04-21T05:39:31.632Z,7.82
2019-04-21T05:40:29.323Z,7.85
2019-04-21T05:41:26.563Z,7.84
2019-04-21T05:42:30.510Z,7.87
2019-04-21T05:43:32.515Z,7.85
2019-04-21T05:44:41.949Z,7.84
2019-04-21T05:45:33.449Z,7.87
2019-04-21T05:46:44.549Z,7.90
2019-04-21T05:47:40.368Z,7.93
2019-04-21T05:48:35.358Z,7.96
2019-04-21T05:49:34.121Z,7.97
2019-04-21T05:50:36.467Z,8.02
2019-04-21T05:51:30.575Z,8.07
2019-04-21T05:52:26.467Z,8.10
2019-04-21T05:56:36.621Z,8.30
2019-04-21T05:57:34.502Z,8.33
2019-04-21T05:58:37.782Z,8.39
2019-04-21T05:59:37.629Z,8.47
2019-04-21T06:00:57.638Z,8.53
2019-04-21T06:01:37.816Z,8.58
2019-04-21T06:02:36.658Z,8.66
2019-04-21T06:04:51.732Z,8.75
2019-04-21T06:05:42.493Z,8.81
2019-04-21T06:06:43.673Z,8.86
2019-04-21T06:07:33.417Z,8.88
2019-04-21T06:08:37.302Z,8.91
2019-04-21T06:09:35.113Z,8.97
2019-04-21T06:10:45.983Z,9.04
2019-04-21T06:11:36.344Z,9.09
2019-04-21T06:12:35.913Z,9.12
2019-04-21T06:13:43.782Z,9.16
2019-04-21T06:14:37.015Z,9.18
2019-04-21T06:15:37.397Z,9.21
2019-04-21T06:16:43.023Z,9.25
2019-04-21T06:17:44.211Z,9.32
2019-04-21T06:18:44.475Z,9.38
2019-04-21T06:19:44.820Z,9.40
2019-04-21T06:20:36.941Z,9.48
2019-04-21T06:21:35.918Z,9.52
2019-04-21T06:22:29.145Z,9.57
2019-04-21T06:23:36.564Z,9.57
2019-04-21T06:24:45.765Z,9.63
2019-04-21T06:25:50.309Z,9.75
2019-04-21T06:26:53.717Z,9.83
2019-04-21T06:27:51.643Z,9.89
2019-04-21T06:28:43.998Z,9.96
2019-04-21T06:29:39.885Z,10.01
2019-04-21T06:30:45.248Z,10.04
2019-04-21T06:32:05.576Z,10.04
2019-04-21T06:33:40.349Z,10.06
2019-04-21T06:34:49.622Z,10.06
2019-04-21T06:35:48.590Z,10.09
2019-04-21T06:36:43.952Z,10.09
2019-04-21T06:37:43.495Z,10.14
2019-04-21T06:38:43.271Z,10.14
2019-04-21T06:39:42.218Z,10.19
2019-04-21T06:40:43.742Z,10.24
2019-04-21T06:41:33.898Z,10.26
2019-04-21T06:42:34.255Z,10.28
2019-04-21T06:43:40.135Z,10.28
2019-04-21T06:44:46.845Z,10.37
2019-04-21T06:45:41.223Z,10.46
2019-04-21T06:46:34.883Z,10.56
2019-04-21T06:47:50.111Z,10.62
2019-04-21T06:48:44.367Z,10.70
2019-04-21T06:49:33.885Z,10.74
2019-04-21T06:50:41.530Z,10.86
2019-04-21T06:51:46.857Z,10.98
2019-04-21T06:52:52.142Z,11.06
2019-04-21T06:53:46.024Z,11.14
2019-04-21T06:55:34.095Z,11.27
2019-04-21T06:56:41.298Z,11.35
2019-04-21T06:58:35.578Z,11.53
2019-04-21T06:59:31.674Z,11.57
2019-04-21T07:00:31.594Z,11.64
2019-04-21T07:01:36.062Z,11.70
2019-04-21T07:02:42.522Z,11.74
2019-04-21T07:03:34.756Z,11.77
2019-04-21T07:04:37.067Z,11.80
2019-04-21T07:05:42.388Z,11.85
2019-04-21T07:06:43.857Z,11.86
2019-04-21T07:07:40.518Z,11.87
2019-04-21T07:09:53.119Z,11.97
2019-04-21T07:10:31.755Z,12.01
2019-04-21T07:11:30.486Z,12.02
2019-04-21T07:12:33.859Z,12.08
2019-04-21T07:13:31.789Z,12.13
2019-04-21T07:14:32.034Z,12.21
2019-04-21T07:15:37.049Z,12.30
2019-04-21T07:16:41.553Z,12.33
2019-04-21T07:17:32.539Z,12.34
2019-04-21T07:18:34.320Z,12.34
2019-04-21T07:19:40.923Z,12.37
2019-04-21T07:20:36.639Z,12.39
2019-04-21T07:21:33.894Z,12.44
2019-04-21T07:22:38.786Z,12.48
2019-04-21T07:23:44.146Z,12.54
2019-04-21T07:24:38.410Z,12.60
2019-04-21T07:25:39.041Z,12.67
2019-04-21T07:26:36.844Z,12.70
2019-04-21T07:27:39.701Z,12.77
2019-04-21T07:28:39.106Z,12.81
2019-04-21T07:29:45.317Z,12.84
2019-04-21T07:30:37.457Z,12.87
2019-04-21T07:31:40.414Z,12.92
2019-04-21T07:32:36.472Z,12.96
2019-04-21T07:34:37.987Z,13.00
2019-04-21T07:35:31.809Z,13.06
2019-04-21T07:37:35.337Z,13.24
2019-04-21T07:38:33.135Z,13.27
2019-04-21T07:39:34.038Z,13.27
2019-04-21T07:40:28.749Z,13.32
2019-04-21T07:41:25.136Z,13.32
2019-04-21T07:42:28.105Z,13.36
2019-04-21T07:43:31.436Z,13.33
2019-04-21T07:44:30.507Z,13.33
2019-04-21T07:45:26.537Z,13.32
2019-04-21T07:46:27.451Z,13.33
2019-04-21T07:47:32.653Z,13.38
2019-04-21T07:48:32.509Z,13.46
2019-04-21T07:49:32.882Z,13.51
2019-04-21T07:50:34.712Z,13.58
2019-04-21T07:51:40.453Z,13.62
2019-04-21T07:52:35.016Z,13.65
2019-04-21T07:53:42.361Z,13.73
2019-04-21T07:54:37.274Z,13.80
2019-04-21T07:56:19.925Z,13.94
2019-04-21T07:57:31.996Z,13.99
2019-04-21T07:58:40.450Z,14.01
2019-04-21T08:00:01.467Z,14.06
2019-04-21T08:00:51.344Z,14.07
2019-04-21T08:01:32.135Z,14.12
2019-04-21T08:03:35.533Z,14.17
2019-04-21T08:05:31.172Z,14.17
2019-04-21T08:06:33.639Z,14.21
2019-04-21T08:07:44.372Z,14.25
2019-04-21T08:08:31.403Z,14.31
2019-04-21T08:09:37.175Z,14.35
2019-04-21T08:10:28.527Z,14.43
2019-04-21T08:11:29.229Z,14.53
2019-04-21T08:12:24.226Z,14.62
2019-04-21T08:13:44.975Z,14.68
2019-04-21T08:14:55.870Z,14.71
2019-04-21T08:15:36.517Z,14.75
2019-04-21T08:16:30.527Z,14.83
2019-04-21T08:17:30.212Z,14.88
2019-04-21T08:18:35.031Z,14.93
2019-04-21T08:19:31.005Z,14.94
2019-04-21T08:20:28.856Z,14.91
2019-04-21T08:21:39.164Z,14.93
2019-04-21T08:22:32.147Z,14.90
2019-04-21T08:23:31.787Z,14.93
2019-04-21T08:24:35.270Z,14.94
2019-04-21T08:25:40.333Z,14.98
2019-04-21T08:26:39.813Z,15.03
2019-04-21T08:27:35.137Z,15.06
2019-04-21T08:28:35.518Z,15.09
2019-04-21T08:29:33.650Z,15.20
2019-04-21T08:30:30.556Z,15.26
2019-04-21T08:31:38.393Z,15.27
2019-04-21T08:32:44.414Z,15.27
2019-04-21T08:33:38.772Z,15.27
2019-04-21T08:34:37.328Z,15.30
2019-04-21T08:36:38.449Z,15.43
2019-04-21T08:37:31.329Z,15.42
2019-04-21T08:38:34.480Z,15.42
2019-04-21T08:39:42.072Z,15.43
2019-04-21T08:40:36.420Z,15.45
2019-04-21T08:41:36.197Z,15.51
2019-04-21T08:42:35.831Z,15.57
2019-04-21T08:43:45.632Z,15.63
2019-04-21T08:44:33.805Z,15.68
2019-04-21T08:45:35.359Z,15.76
2019-04-21T08:46:34.445Z,15.82
2019-04-21T08:47:33.087Z,15.81
2019-04-21T08:48:30.072Z,15.84
2019-04-21T08:49:34.899Z,15.86
2019-04-21T08:50:30.871Z,15.93
2019-04-21T08:51:50.673Z,16.01
2019-04-21T08:52:42.428Z,16.12
2019-04-21T08:53:36.533Z,16.22
2019-04-21T08:54:32.721Z,16.30
2019-04-21T08:55:36.192Z,16.35
2019-04-21T08:56:33.924Z,16.44
2019-04-21T08:57:48.855Z,16.55
2019-04-21T08:58:38.934Z,16.62
2019-04-21T08:59:31.762Z,16.68
2019-04-21T09:00:33.500Z,16.75
2019-04-21T09:02:35.135Z,16.83
2019-04-21T09:03:28.449Z,16.85
2019-04-21T09:04:29.108Z,16.86
2019-04-21T09:05:29.662Z,16.90
2019-04-21T09:06:51.472Z,16.93
2019-04-21T09:07:32.121Z,17.00
2019-04-21T09:08:35.615Z,17.10
2019-04-21T09:09:30.935Z,17.18
2019-04-21T09:10:31.083Z,17.29
2019-04-21T09:11:28.770Z,17.38
2019-04-21T09:12:32.775Z,17.40
2019-04-21T09:13:35.532Z,17.41
2019-04-21T09:14:31.000Z,17.51
2019-04-21T09:15:31.068Z,17.57
2019-04-21T09:16:26.247Z,17.71
2019-04-21T09:17:27.699Z,17.84
2019-04-21T09:18:22.822Z,17.84
2019-04-21T09:19:42.422Z,17.87
2019-04-21T09:20:32.574Z,17.89
2019-04-21T09:21:31.464Z,17.91
2019-04-21T09:22:30.703Z,17.97
2019-04-21T09:23:31.782Z,18.03
2019-04-21T09:24:26.692Z,18.07
2019-04-21T09:25:36.190Z,18.18
2019-04-21T09:26:29.380Z,18.27
2019-04-21T09:27:27.687Z,18.33
2019-04-21T09:28:25.694Z,18.39
2019-04-21T09:29:21.863Z,18.40
2019-04-21T09:30:12.830Z,18.46
2019-04-21T09:31:10.737Z,18.49
2019-04-21T09:32:16.644Z,18.54
2019-04-21T09:33:11.674Z,18.57
2019-04-21T09:34:14.277Z,18.58
2019-04-21T09:35:14.855Z,18.59
2019-04-21T09:36:16.336Z,18.65
2019-04-21T09:37:24.282Z,18.67
2019-04-21T09:38:19.311Z,18.72
2019-04-21T09:39:15.016Z,18.76
2019-04-21T09:40:13.439Z,18.82
2019-04-21T09:41:15.908Z,18.84
2019-04-21T09:42:11.433Z,18.84
2019-04-21T09:43:13.307Z,18.87
2019-04-21T09:44:17.217Z,18.91
2019-04-21T09:45:12.477Z,18.95
2019-04-21T09:46:10.028Z,18.97
2019-04-21T09:47:12.112Z,19.01
2019-04-21T09:48:16.707Z,19.06
2019-04-21T09:49:14.422Z,19.14
2019-04-21T09:50:11.660Z,19.18
2019-04-21T09:51:11.048Z,19.17
2019-04-21T09:52:16.121Z,19.17
2019-04-21T09:53:20.979Z,19.15
2019-04-21T09:54:20.395Z,19.18
2019-04-21T09:55:16.995Z,19.21
2019-04-21T09:56:16.057Z,19.18
2019-04-21T09:57:21.911Z,19.21
2019-04-21T09:58:23.213Z,19.25
2019-04-21T09:59:19.341Z,19.32
2019-04-21T10:00:15.085Z,19.36
2019-04-21T10:01:19.751Z,19.33
2019-04-21T10:02:18.143Z,19.24
2019-04-21T10:03:14.012Z,19.18
2019-04-21T10:04:11.943Z,19.23
2019-04-21T10:05:10.049Z,19.25
2019-04-21T10:06:11.163Z,19.20
2019-04-21T10:07:20.951Z,19.21
2019-04-21T10:08:10.789Z,19.28
2019-04-21T10:09:14.233Z,19.35
2019-04-21T10:10:10.758Z,19.46
2019-04-21T10:11:09.900Z,19.55
2019-04-21T10:12:09.873Z,19.58
2019-04-21T10:13:10.624Z,19.58
2019-04-21T10:14:09.822Z,19.58
2019-04-21T10:15:10.669Z,19.54
2019-04-21T10:16:10.758Z,19.50
2019-04-21T10:17:10.787Z,19.50
2019-04-21T10:18:10.783Z,19.55
2019-04-21T10:19:11.020Z,19.58
2019-04-21T10:20:09.659Z,19.63
2019-04-21T10:21:09.705Z,19.68
2019-04-21T10:22:10.544Z,19.70
2019-04-21T10:23:09.634Z,19.72
2019-04-21T10:24:10.495Z,19.75
2019-04-21T10:25:10.511Z,19.80
2019-04-21T10:26:10.486Z,19.84
2019-04-21T10:27:12.244Z,19.87
2019-04-21T10:28:10.831Z,19.87
2019-04-21T10:29:19.440Z,19.88
2019-04-21T10:30:11.973Z,19.88
2019-04-21T10:31:09.527Z,19.86
2019-04-21T10:32:09.521Z,19.80
2019-04-21T10:33:10.417Z,19.73
2019-04-21T10:34:09.500Z,19.73
2019-04-21T10:35:10.783Z,19.70
2019-04-21T10:36:09.467Z,19.73
2019-04-21T10:37:09.460Z,19.79
2019-04-21T10:38:19.891Z,19.86
2019-04-21T10:39:11.490Z,19.88
2019-04-21T10:40:09.714Z,19.88
2019-04-21T10:41:09.621Z,19.88
2019-04-21T10:42:09.407Z,19.88
2019-04-21T10:43:12.030Z,19.88
2019-04-21T10:44:09.427Z,19.91
2019-04-21T10:45:10.619Z,19.90
2019-04-21T10:46:10.661Z,19.87
2019-04-21T10:47:09.384Z,19.80
2019-04-21T10:48:10.690Z,19.83
2019-04-21T10:49:10.435Z,19.80
2019-04-21T10:50:09.602Z,19.83
2019-04-21T10:51:10.652Z,19.83
2019-04-21T10:52:09.308Z,19.79
2019-04-21T10:53:09.307Z,19.76
2019-04-21T10:54:09.282Z,19.79
2019-04-21T10:55:28.901Z,19.88
2019-04-21T10:56:19.206Z,19.93
2019-04-21T10:57:10.446Z,19.93
2019-04-21T10:58:10.669Z,19.91
2019-04-21T10:59:10.221Z,19.94
2019-04-21T11:00:11.948Z,19.95
2019-04-21T11:01:10.642Z,19.97
2019-04-21T11:02:10.529Z,19.94
2019-04-21T11:03:09.171Z,19.93
2019-04-21T11:04:19.586Z,19.90
2019-04-21T11:05:10.151Z,19.88
2019-04-21T11:06:10.549Z,19.91
2019-04-21T11:07:15.480Z,19.98
2019-04-21T11:08:21.573Z,20.03
2019-04-21T11:09:10.741Z,19.98
2019-04-21T11:10:09.962Z,19.97
2019-04-21T11:11:10.000Z,19.97
2019-04-21T11:12:10.146Z,19.98
2019-04-21T11:13:10.348Z,19.95
2019-04-21T11:14:09.071Z,19.95
2019-04-21T11:15:09.367Z,20.00
2019-04-21T11:16:09.041Z,20.02
2019-04-21T11:17:10.189Z,20.02
2019-04-21T11:18:10.117Z,20.02
2019-04-21T11:19:09.527Z,20.00
2019-04-21T11:20:09.002Z,20.08
2019-04-21T11:21:09.249Z,20.06
2019-04-21T11:22:08.969Z,20.05
2019-04-21T11:23:10.150Z,20.08
2019-04-21T11:24:10.144Z,20.05
2019-04-21T11:25:09.216Z,20.03
2019-04-21T11:26:09.960Z,20.03
2019-04-21T11:27:08.911Z,20.08
2019-04-21T11:28:09.033Z,20.09
2019-04-21T11:29:08.890Z,20.10
2019-04-21T11:30:09.581Z,20.06
2019-04-21T11:31:09.086Z,20.10
2019-04-21T11:32:09.306Z,20.12
2019-04-21T11:33:09.116Z,20.15
2019-04-21T11:34:09.200Z,20.21
2019-04-21T11:35:09.440Z,20.25
2019-04-21T11:36:09.071Z,20.27
2019-04-21T11:37:10.171Z,20.20
2019-04-21T11:38:16.964Z,20.24
2019-04-21T11:39:22.236Z,20.34
2019-04-21T11:40:14.075Z,20.47
2019-04-21T11:41:09.882Z,20.50
2019-04-21T11:42:09.965Z,20.51
2019-04-21T11:43:09.573Z,20.47
2019-04-21T11:44:09.882Z,20.41
2019-04-21T11:45:08.732Z,20.39
2019-04-21T11:46:08.703Z,20.49
2019-04-21T11:47:10.152Z,20.54
2019-04-21T11:48:08.686Z,20.58
2019-04-21T11:49:08.672Z,20.54
2019-04-21T11:50:08.673Z,20.50
2019-04-21T11:51:09.043Z,20.49
2019-04-21T11:52:09.169Z,20.53
2019-04-21T11:53:08.630Z,20.59
2019-04-21T11:54:08.805Z,20.64
2019-04-21T11:55:08.967Z,20.68
2019-04-21T11:56:09.047Z,20.72
2019-04-21T11:57:17.634Z,20.77
2019-04-21T11:58:09.968Z,20.76
2019-04-21T11:59:09.859Z,20.74
2019-04-21T12:00:09.354Z,20.72
2019-04-21T12:01:09.663Z,20.71
2019-04-21T12:02:09.725Z,20.64
2019-04-21T12:03:09.225Z,20.54
2019-04-21T12:04:09.757Z,20.50
2019-04-21T12:05:09.686Z,20.53
2019-04-21T12:06:09.182Z,20.53
2019-04-21T12:07:09.195Z,20.56
2019-04-21T12:08:19.885Z,20.62
2019-04-21T12:09:10.101Z,20.62
2019-04-21T12:10:09.206Z,20.62
2019-04-21T12:11:09.406Z,20.62
2019-04-21T12:12:09.529Z,20.65
2019-04-21T12:13:08.404Z,20.72
2019-04-21T12:14:08.396Z,20.76
2019-04-21T12:15:10.818Z,20.80
2019-04-21T12:16:08.413Z,20.87
2019-04-21T12:17:08.355Z,20.86
2019-04-21T12:18:08.383Z,20.86
2019-04-21T12:19:09.186Z,20.83
2019-04-21T12:20:08.634Z,20.81
2019-04-21T12:21:09.387Z,20.81
2019-04-21T12:22:17.280Z,20.80
2019-04-21T12:23:09.299Z,20.74
2019-04-21T12:24:09.027Z,20.72
2019-04-21T12:25:09.292Z,20.69
2019-04-21T12:26:09.345Z,20.65
2019-04-21T12:27:10.144Z,20.65
2019-04-21T12:28:08.243Z,20.66
2019-04-21T12:29:08.263Z,20.68
2019-04-21T12:30:09.378Z,20.66
2019-04-21T12:31:09.607Z,20.69
2019-04-21T12:32:09.659Z,20.69
2019-04-21T12:33:08.188Z,20.74
2019-04-21T12:34:08.230Z,20.81
2019-04-21T12:35:08.268Z,20.87
2019-04-21T12:36:09.349Z,20.93
2019-04-21T12:37:08.796Z,20.96
2019-04-21T12:38:08.892Z,20.95
2019-04-21T12:39:09.085Z,20.95
2019-04-21T12:40:08.552Z,20.95
2019-04-21T12:41:08.720Z,20.95
2019-04-21T12:42:08.917Z,20.95
2019-04-21T12:43:08.483Z,20.91
2019-04-21T12:44:08.814Z,20.96
2019-04-21T12:45:08.086Z,20.98
2019-04-21T12:46:08.086Z,20.87
2019-04-21T12:47:08.045Z,20.80
2019-04-21T12:48:08.377Z,20.74
2019-04-21T12:49:08.010Z,20.74
2019-04-21T12:50:08.718Z,20.83
2019-04-21T12:51:08.047Z,20.95
2019-04-21T12:52:09.244Z,21.06
2019-04-21T12:53:07.976Z,21.16
2019-04-21T12:54:08.085Z,21.20
2019-04-21T12:55:09.299Z,21.23
2019-04-21T12:56:07.934Z,21.27
2019-04-21T12:57:07.927Z,21.32
2019-04-21T12:58:08.256Z,21.35
2019-04-21T12:59:08.155Z,21.32
2019-04-21T13:00:09.014Z,21.14
2019-04-21T13:01:09.228Z,21.16
2019-04-21T13:02:07.866Z,21.17
2019-04-21T13:03:07.877Z,21.21
2019-04-21T13:04:08.172Z,21.20
2019-04-21T13:05:07.838Z,21.16
2019-04-21T13:06:07.826Z,21.16
2019-04-21T13:07:07.930Z,21.13
2019-04-21T13:08:09.166Z,21.11
2019-04-21T13:09:11.188Z,21.14
2019-04-21T13:10:08.787Z,21.24
2019-04-21T13:11:09.478Z,21.29
2019-04-21T13:12:08.888Z,21.32
2019-04-21T13:13:08.123Z,21.32
2019-04-21T13:14:08.256Z,21.34
2019-04-21T13:15:08.706Z,21.39
2019-04-21T13:16:07.717Z,21.39
2019-04-21T13:17:07.708Z,21.30
2019-04-21T13:18:08.152Z,21.24
2019-04-21T13:19:07.710Z,21.19
2019-04-21T13:20:07.695Z,21.08
2019-04-21T13:21:07.671Z,21.02
2019-04-21T13:22:07.902Z,21.01
2019-04-21T13:23:08.145Z,21.04
2019-04-21T13:24:07.653Z,21.06
2019-04-21T13:25:07.683Z,21.08
2019-04-21T13:26:08.288Z,21.19
2019-04-21T13:27:09.429Z,21.23
2019-04-21T13:28:07.587Z,21.26
2019-04-21T13:29:08.346Z,21.27
2019-04-21T13:30:08.237Z,21.27
2019-04-21T13:31:08.590Z,21.29
2019-04-21T13:32:08.899Z,21.29
2019-04-21T13:33:07.546Z,21.27
2019-04-21T13:34:08.286Z,21.27
2019-04-21T13:35:08.513Z,21.24
2019-04-21T13:36:07.751Z,21.21
2019-04-21T13:37:07.721Z,21.24
2019-04-21T13:38:18.812Z,21.26
2019-04-21T13:39:37.972Z,21.20
2019-04-21T13:40:29.256Z,21.16
2019-04-21T13:41:21.472Z,21.13
2019-04-21T13:42:19.861Z,21.01
2019-04-21T13:43:10.290Z,20.98
2019-04-21T13:44:08.805Z,20.93
2019-04-21T13:45:08.226Z,20.89
2019-04-21T13:46:08.051Z,20.86
2019-04-21T13:47:07.388Z,20.87
2019-04-21T13:48:08.369Z,20.86
2019-04-21T13:49:07.482Z,20.89
2019-04-21T13:50:08.834Z,21.01
2019-04-21T13:51:07.348Z,21.09
2019-04-21T13:52:08.822Z,21.13
2019-04-21T13:53:07.311Z,21.20
2019-04-21T13:54:07.399Z,21.29
2019-04-21T13:55:07.736Z,21.26
2019-04-21T13:56:08.784Z,21.16
2019-04-21T13:57:08.358Z,21.05
2019-04-21T13:58:08.550Z,21.05
2019-04-21T13:59:08.468Z,21.09
2019-04-21T14:00:07.250Z,21.17
2019-04-21T14:01:07.696Z,21.20
2019-04-21T14:02:08.821Z,21.19
2019-04-21T14:03:07.230Z,21.19
2019-04-21T14:04:07.342Z,21.23
2019-04-21T14:05:10.035Z,21.26
2019-04-21T14:06:08.467Z,21.30
2019-04-21T14:07:08.204Z,21.23
2019-04-21T14:08:07.450Z,21.21
2019-04-21T14:09:07.416Z,21.26
2019-04-21T14:10:10.272Z,21.27
2019-04-21T14:11:07.245Z,21.24
2019-04-21T14:12:07.612Z,21.24
2019-04-21T14:13:07.091Z,21.20
2019-04-21T14:14:08.270Z,21.20
2019-04-21T14:15:08.299Z,21.24
2019-04-21T14:16:08.139Z,21.27
2019-04-21T14:17:07.144Z,21.34
2019-04-21T14:18:07.041Z,21.36
2019-04-21T14:19:07.578Z,21.41
2019-04-21T14:20:07.037Z,21.36
2019-04-21T14:21:07.219Z,21.30